Colgrade, Louisiana
Current Conditions -  °F | °C
As of 7:15 AM on Sunday 23 Nov 2014 (Local Time) from KIER Reporting Station
Moderate Rain Moderate Rain  
Wind Chill: 63°   Ceiling: 400
Heat Index: 63°   Visibility: 2mi
Dew Point: 63°   Wind: 0mph
Humidity: 99%   Direction: NA
Pressure: 29.57"   Gusts: NA
Location:  31.885°N, 92.6017°W
Report Text: KIER 231315Z AUTO 00000KT 2SM RA BKN004 OVC010 17/17 A2957 RMK AO2 T01720171
Loading
Personal Weather Stations






























Interactive Weather Map New forecast layout! Learn more

10-Day Weather Forecast

Advertisements
Track Severe Weather on mobile